createdAt,value
2019-05-23T00:00:39.996Z,67.73
2019-05-23T00:03:35.293Z,67.07
2019-05-23T00:06:24.352Z,64.10
2019-05-23T00:09:13.080Z,63.83
2019-05-23T00:11:55.763Z,54.27
2019-05-23T00:14:46.555Z,48.10
2019-05-23T00:17:20.672Z,49.73
2019-05-23T00:19:51.302Z,48.03
2019-05-23T00:22:25.553Z,42.87
2019-05-23T00:24:57.391Z,41.57
2019-05-23T00:27:27.627Z,37.73
2019-05-23T00:30:00.251Z,35.77
2019-05-23T00:32:43.023Z,33.83
2019-05-23T00:35:14.803Z,35.87
2019-05-23T00:37:49.087Z,38.83
2019-05-23T00:40:19.777Z,32.43
2019-05-23T00:42:51.765Z,29.87
2019-05-23T00:45:24.303Z,27.00
2019-05-23T00:47:55.122Z,28.60
2019-05-23T00:50:27.880Z,27.80
2019-05-23T00:52:58.307Z,26.07
2019-05-23T00:55:28.966Z,32.07
2019-05-23T00:58:01.642Z,24.63
2019-05-23T01:00:32.523Z,22.40
2019-05-23T01:03:05.434Z,21.93
2019-05-23T01:05:36.352Z,23.50
2019-05-23T01:08:07.338Z,22.73
2019-05-23T01:10:39.604Z,19.03
2019-05-23T01:13:11.292Z,23.00
2019-05-23T01:15:43.358Z,20.43
2019-05-23T01:18:15.884Z,21.13
2019-05-23T01:21:17.350Z,20.77
2019-05-23T01:23:55.769Z,17.17
2019-05-23T01:26:26.533Z,19.73
2019-05-23T01:28:58.188Z,20.33
2019-05-23T01:31:34.235Z,15.83
2019-05-23T01:34:05.607Z,18.17
2019-05-23T01:36:37.072Z,17.03
2019-05-23T01:39:11.705Z,15.97
2019-05-23T01:41:44.079Z,17.03
2019-05-23T01:44:14.412Z,15.97
2019-05-23T01:46:44.916Z,16.97
2019-05-23T01:49:17.815Z,18.20
2019-05-23T01:51:49.362Z,14.47
2019-05-23T01:54:21.898Z,17.40
2019-05-23T01:56:52.592Z,16.93
2019-05-23T01:59:22.973Z,15.57
2019-05-23T02:01:56.384Z,18.47
2019-05-23T02:04:26.691Z,16.63
2019-05-23T02:06:57.419Z,17.13
2019-05-23T02:09:28.352Z,13.83
2019-05-23T02:11:58.744Z,16.93
2019-05-23T02:14:29.142Z,14.83
2019-05-23T02:17:01.194Z,15.23
2019-05-23T02:19:31.990Z,15.10
2019-05-23T02:22:02.363Z,12.87
2019-05-23T02:24:32.708Z,15.87
2019-05-23T02:27:02.972Z,15.57
2019-05-23T02:29:33.818Z,17.30
2019-05-23T02:32:06.449Z,14.27
2019-05-23T02:34:38.434Z,13.23
2019-05-23T02:37:16.968Z,13.57
2019-05-23T02:39:53.288Z,19.40
2019-05-23T02:42:34.631Z,15.90
2019-05-23T02:45:06.734Z,17.67
2019-05-23T02:47:42.155Z,15.00
2019-05-23T02:50:18.532Z,18.27
2019-05-23T02:52:54.306Z,20.83
2019-05-23T02:55:34.369Z,14.63
2019-05-23T02:58:36.525Z,17.97
2019-05-23T03:01:25.269Z,18.10
2019-05-23T03:03:56.865Z,20.30
2019-05-23T03:06:27.340Z,15.33
2019-05-23T03:08:59.204Z,15.37
2019-05-23T03:11:42.536Z,18.17
2019-05-23T03:14:13.388Z,21.73
2019-05-23T03:16:45.536Z,18.40
2019-05-23T03:19:28.832Z,17.63
2019-05-23T03:22:18.975Z,17.87
2019-05-23T03:24:51.354Z,20.43
2019-05-23T03:27:23.659Z,22.40
2019-05-23T03:29:55.792Z,22.43
2019-05-23T03:32:44.110Z,19.80
2019-05-23T03:35:24.479Z,19.70
2019-05-23T03:37:55.029Z,19.03
2019-05-23T03:40:25.396Z,19.50
2019-05-23T03:42:59.762Z,19.97
2019-05-23T03:45:33.001Z,21.43
2019-05-23T03:48:05.790Z,20.40
2019-05-23T03:50:36.747Z,23.17
2019-05-23T03:53:08.080Z,22.30
2019-05-23T03:55:38.617Z,23.37
2019-05-23T03:58:11.373Z,21.97
2019-05-23T04:00:56.833Z,23.07
2019-05-23T04:03:28.019Z,23.50
2019-05-23T04:06:00.050Z,24.17
2019-05-23T04:08:30.310Z,21.90
2019-05-23T04:11:00.567Z,23.87
2019-05-23T04:13:30.807Z,24.17
2019-05-23T04:16:01.646Z,24.63
2019-05-23T04:18:31.807Z,21.63
2019-05-23T04:21:02.008Z,25.00
2019-05-23T04:23:32.651Z,29.07
2019-05-23T04:26:04.539Z,22.83
2019-05-23T04:28:34.649Z,20.03
2019-05-23T04:31:05.259Z,23.50
2019-05-23T04:33:37.927Z,24.87
2019-05-23T04:36:08.628Z,31.00
2019-05-23T04:38:39.077Z,25.33
2019-05-23T04:41:09.506Z,27.30
2019-05-23T04:43:42.354Z,26.97
2019-05-23T04:46:16.280Z,23.47
2019-05-23T04:48:47.183Z,23.73
2019-05-23T04:51:17.591Z,28.00
2019-05-23T04:53:47.884Z,22.57
2019-05-23T04:56:18.144Z,22.70
2019-05-23T04:58:49.081Z,22.80
2019-05-23T05:01:21.699Z,22.80
2019-05-23T05:03:52.294Z,26.17
2019-05-23T05:06:26.029Z,23.87
2019-05-23T05:09:00.709Z,24.80
2019-05-23T05:11:31.188Z,26.30
2019-05-23T05:14:03.056Z,28.03
2019-05-23T05:16:33.652Z,23.43
2019-05-23T05:19:04.603Z,23.63
2019-05-23T05:21:34.945Z,20.97
2019-05-23T05:24:06.328Z,23.90
2019-05-23T05:26:36.863Z,28.37
2019-05-23T05:29:08.035Z,21.43
2019-05-23T05:31:41.069Z,24.03
2019-05-23T05:34:12.131Z,23.03
2019-05-23T05:36:43.730Z,25.10
2019-05-23T05:39:15.788Z,23.87
2019-05-23T05:41:46.426Z,29.17
2019-05-23T05:44:16.725Z,23.80
2019-05-23T05:46:47.032Z,25.53
2019-05-23T05:49:19.014Z,21.70
2019-05-23T05:51:50.057Z,24.33
2019-05-23T05:54:21.030Z,23.63
2019-05-23T05:56:51.526Z,22.43
2019-05-23T05:59:23.293Z,20.10
2019-05-23T06:01:53.712Z,20.23
2019-05-23T06:04:24.137Z,22.93
2019-05-23T06:07:04.699Z,24.50
2019-05-23T06:09:34.936Z,24.83
2019-05-23T06:12:06.024Z,20.17
2019-05-23T06:14:36.865Z,22.40
2019-05-23T06:17:09.175Z,24.60
2019-05-23T06:19:39.461Z,18.77
2019-05-23T06:22:09.862Z,21.67
2019-05-23T06:24:48.055Z,22.60
2019-05-23T06:27:14.155Z,19.43
2019-05-23T06:29:44.466Z,20.37
2019-05-23T06:32:17.125Z,19.07
2019-05-23T06:34:50.695Z,20.10
2019-05-23T06:37:21.140Z,20.30
2019-05-23T06:39:51.393Z,20.13
2019-05-23T06:42:22.634Z,19.97
2019-05-23T06:44:54.202Z,17.37
2019-05-23T06:47:25.352Z,23.07
2019-05-23T06:49:55.535Z,15.97
2019-05-23T06:52:25.713Z,25.97
2019-05-23T06:54:59.585Z,16.30
2019-05-23T06:57:28.993Z,20.20
2019-05-23T06:59:59.505Z,15.23
2019-05-23T07:02:32.082Z,15.73
2019-05-23T07:05:01.619Z,17.67
2019-05-23T07:07:33.917Z,19.10
2019-05-23T07:10:05.579Z,16.67
2019-05-23T07:12:36.490Z,20.03
2019-05-23T07:15:07.223Z,15.13
2019-05-23T07:17:38.165Z,20.87
2019-05-23T07:20:10.057Z,16.70
2019-05-23T07:22:40.769Z,18.43
2019-05-23T07:25:11.762Z,19.10
2019-05-23T07:27:42.237Z,21.43
2019-05-23T07:30:18.651Z,16.77
2019-05-23T07:32:52.803Z,21.03
2019-05-23T07:35:23.780Z,17.93
2019-05-23T07:37:55.144Z,20.70
2019-05-23T07:40:27.353Z,17.43
2019-05-23T07:42:57.616Z,19.87
2019-05-23T07:45:39.633Z,17.67
2019-05-23T07:48:08.225Z,16.23
2019-05-23T07:50:38.895Z,19.33
2019-05-23T07:53:10.655Z,23.80
2019-05-23T07:55:43.246Z,19.00
2019-05-23T07:58:14.434Z,17.30
2019-05-23T08:00:53.234Z,19.10
2019-05-23T08:03:26.288Z,17.97
2019-05-23T08:05:56.671Z,19.57
2019-05-23T08:08:27.193Z,14.03
2019-05-23T08:10:57.476Z,18.77
2019-05-23T08:13:28.302Z,18.73
2019-05-23T08:15:58.673Z,15.17
2019-05-23T08:18:29.576Z,13.53
2019-05-23T08:20:59.728Z,14.47
2019-05-23T08:23:30.247Z,11.80
2019-05-23T08:26:00.418Z,12.23
2019-05-23T08:28:30.778Z,14.20
2019-05-23T08:31:01.004Z,14.40
2019-05-23T08:33:31.484Z,13.93
2019-05-23T08:36:02.261Z,16.03
2019-05-23T08:38:32.707Z,15.77
2019-05-23T08:41:03.375Z,17.43
2019-05-23T08:43:33.662Z,12.63
2019-05-23T08:46:03.978Z,12.95
2019-05-23T08:48:34.109Z,16.17
2019-05-23T08:51:05.749Z,15.63
2019-05-23T08:53:35.963Z,14.90
2019-05-23T08:56:17.914Z,14.47
2019-05-23T08:58:39.432Z,18.07
2019-05-23T09:01:10.991Z,14.50
2019-05-23T09:03:41.169Z,16.97
2019-05-23T09:06:11.369Z,17.40
2019-05-23T09:08:42.377Z,14.68
2019-05-23T09:11:13.387Z,14.33
2019-05-23T09:13:43.945Z,13.77
2019-05-23T09:16:14.834Z,16.48
2019-05-23T09:18:45.106Z,18.30
2019-05-23T09:21:15.461Z,15.30
2019-05-23T09:23:46.624Z,16.40
2019-05-23T09:26:17.914Z,14.67
2019-05-23T09:28:48.209Z,18.05
2019-05-23T09:31:18.730Z,14.63
2019-05-23T09:33:48.939Z,12.98
2019-05-23T09:36:19.289Z,16.30
2019-05-23T09:38:49.512Z,16.12
2019-05-23T09:41:19.819Z,13.27
2019-05-23T09:43:50.138Z,16.48
2019-05-23T09:46:22.032Z,10.03
2019-05-23T09:48:52.776Z,14.13
2019-05-23T09:51:23.399Z,12.93
2019-05-23T09:53:54.576Z,11.83
2019-05-23T09:56:24.915Z,13.20
2019-05-23T09:58:55.105Z,11.67
2019-05-23T10:01:25.379Z,7.87
2019-05-23T10:03:55.822Z,7.80
2019-05-23T10:06:27.579Z,10.37
2019-05-23T10:08:57.831Z,7.35
2019-05-23T10:11:29.435Z,7.77
2019-05-23T10:14:00.499Z,7.90
2019-05-23T10:16:30.878Z,6.75
2019-05-23T10:19:01.231Z,6.62
2019-05-23T10:21:31.862Z,9.60
2019-05-23T10:24:02.069Z,9.90
2019-05-23T10:26:32.273Z,10.78
2019-05-23T10:29:02.451Z,7.57
2019-05-23T10:31:33.214Z,6.83
2019-05-23T10:34:03.400Z,8.63
2019-05-23T10:36:33.574Z,12.15
2019-05-23T10:39:05.626Z,6.77
2019-05-23T10:41:36.088Z,6.67
2019-05-23T10:44:06.443Z,6.17
2019-05-23T10:46:36.701Z,6.20
2019-05-23T10:49:06.972Z,6.23
2019-05-23T10:51:37.195Z,4.33
2019-05-23T10:54:07.522Z,4.67
2019-05-23T10:56:37.868Z,12.88
2019-05-23T10:59:08.184Z,6.62
2019-05-23T11:01:39.413Z,6.75
2019-05-23T11:04:10.093Z,6.63
2019-05-23T11:06:40.635Z,11.73
2019-05-23T11:09:11.569Z,7.87
2019-05-23T11:11:42.522Z,9.63
2019-05-23T11:14:15.081Z,5.95
2019-05-23T11:16:45.240Z,4.75
2019-05-23T11:19:15.607Z,8.03
2019-05-23T11:21:46.071Z,8.68
2019-05-23T11:24:18.159Z,10.72
2019-05-23T11:26:48.663Z,7.05
2019-05-23T11:29:18.856Z,6.70
2019-05-23T11:31:51.054Z,5.70
2019-05-23T11:34:22.099Z,7.58
2019-05-23T11:36:52.516Z,4.30
2019-05-23T11:39:23.354Z,5.75
2019-05-23T11:41:53.613Z,7.55
2019-05-23T11:44:23.818Z,5.45
2019-05-23T11:46:54.039Z,4.92
2019-05-23T11:49:24.244Z,5.87
2019-05-23T11:51:55.300Z,5.00
2019-05-23T11:54:25.848Z,6.30
2019-05-23T11:56:56.855Z,4.78
2019-05-23T11:59:27.129Z,5.15
2019-05-23T12:02:16.218Z,6.00
2019-05-23T12:04:46.389Z,5.78
2019-05-23T12:07:20.571Z,6.78
2019-05-23T12:09:50.804Z,2.90
2019-05-23T12:12:20.999Z,4.08
2019-05-23T12:14:51.212Z,4.40
2019-05-23T12:17:22.954Z,8.95
2019-05-23T12:19:53.263Z,8.68
2019-05-23T12:22:24.423Z,5.40
2019-05-23T12:24:54.825Z,4.67
2019-05-23T12:27:25.389Z,5.33
2019-05-23T12:29:55.776Z,5.37
2019-05-23T12:32:26.033Z,4.35
2019-05-23T12:35:09.824Z,3.90
2019-05-23T12:37:28.373Z,4.50
2019-05-23T12:39:59.423Z,6.22
2019-05-23T12:42:29.663Z,8.60
2019-05-23T12:45:00.072Z,5.10
2019-05-23T12:47:41.054Z,4.10
2019-05-23T12:50:14.687Z,5.95
2019-05-23T12:52:44.888Z,3.98
2019-05-23T12:55:15.182Z,4.72
2019-05-23T12:57:45.463Z,2.72
2019-05-23T13:00:25.948Z,3.05
2019-05-23T13:03:01.209Z,2.90
2019-05-23T13:05:31.860Z,2.42
2019-05-23T13:08:06.377Z,4.55
2019-05-23T13:10:37.006Z,3.15
2019-05-23T13:13:07.427Z,3.77
2019-05-23T13:15:37.653Z,4.58
2019-05-23T13:18:07.917Z,4.17
2019-05-23T13:20:44.191Z,5.72
2019-05-23T13:23:20.682Z,3.08
2019-05-23T13:25:52.830Z,6.80
2019-05-23T13:28:23.101Z,6.90
2019-05-23T13:30:54.216Z,5.33
2019-05-23T13:33:24.454Z,3.65
2019-05-23T13:35:54.820Z,4.87
2019-05-23T13:38:25.234Z,4.53
2019-05-23T13:40:55.555Z,2.90
2019-05-23T13:43:26.449Z,2.72
2019-05-23T13:45:56.751Z,4.90
2019-05-23T13:48:29.283Z,5.10
2019-05-23T13:51:04.464Z,7.03
2019-05-23T13:53:36.429Z,10.45
2019-05-23T13:56:09.494Z,8.23
2019-05-23T13:58:41.340Z,5.13
2019-05-23T14:01:12.342Z,11.93
2019-05-23T14:03:47.939Z,8.73
2019-05-23T14:06:19.362Z,7.33
2019-05-23T14:08:49.534Z,16.12
2019-05-23T14:11:19.997Z,8.55
2019-05-23T14:13:59.188Z,9.28
2019-05-23T14:16:23.808Z,8.83
2019-05-23T14:18:54.010Z,9.90
2019-05-23T14:21:24.182Z,7.40
2019-05-23T14:23:54.431Z,6.03
2019-05-23T14:26:26.992Z,6.87
2019-05-23T14:28:58.567Z,8.25
2019-05-23T14:31:33.169Z,5.60
2019-05-23T14:34:05.505Z,6.20
2019-05-23T14:36:43.587Z,4.10
2019-05-23T14:39:32.705Z,3.95
2019-05-23T14:42:13.021Z,5.60
2019-05-23T14:44:43.197Z,3.35
2019-05-23T14:47:31.216Z,4.00
2019-05-23T14:50:23.951Z,6.70
2019-05-23T14:52:54.617Z,13.15
2019-05-23T14:55:25.429Z,5.87
2019-05-23T14:58:00.804Z,9.03
2019-05-23T15:00:37.412Z,9.23
2019-05-23T15:03:10.914Z,10.45
2019-05-23T15:05:41.608Z,9.03
2019-05-23T15:08:19.399Z,8.30
2019-05-23T15:10:51.402Z,9.28
2019-05-23T15:13:21.801Z,7.92
2019-05-23T15:15:53.679Z,7.03
2019-05-23T15:18:25.513Z,11.50
2019-05-23T15:20:55.736Z,9.23
2019-05-23T15:23:26.095Z,11.48
2019-05-23T15:25:56.646Z,11.25
2019-05-23T15:28:26.804Z,12.05
2019-05-23T15:31:00.248Z,16.10
2019-05-23T15:33:32.258Z,17.05
2019-05-23T15:36:02.613Z,11.00
2019-05-23T15:38:34.110Z,11.28
2019-05-23T15:41:04.508Z,12.45
2019-05-23T15:43:34.797Z,14.43
2019-05-23T15:46:08.423Z,11.55
2019-05-23T15:48:38.694Z,12.28
2019-05-23T15:51:10.156Z,11.78
2019-05-23T15:54:04.713Z,13.00
2019-05-23T15:56:50.263Z,13.40
2019-05-23T15:59:24.766Z,11.70
2019-05-23T16:02:02.055Z,14.00
2019-05-23T16:04:35.246Z,12.95
2019-05-23T16:07:06.651Z,12.23
2019-05-23T16:09:36.940Z,11.80
2019-05-23T16:12:08.252Z,12.10
2019-05-23T16:14:38.608Z,12.75
2019-05-23T16:17:11.532Z,12.85
2019-05-23T16:19:41.941Z,13.80
2019-05-23T16:22:12.583Z,15.63
2019-05-23T16:24:45.372Z,12.93
2019-05-23T16:27:15.652Z,10.63
2019-05-23T16:29:45.927Z,18.32
2019-05-23T16:32:16.331Z,12.07
2019-05-23T16:34:46.595Z,15.70
2019-05-23T16:37:16.819Z,16.27
2019-05-23T16:39:49.446Z,19.00
2019-05-23T16:42:18.983Z,17.02
2019-05-23T16:44:49.228Z,14.07
2019-05-23T16:47:20.495Z,16.20
2019-05-23T16:49:50.756Z,17.83
2019-05-23T16:52:20.992Z,15.83
2019-05-23T16:54:53.089Z,15.20
2019-05-23T16:57:40.208Z,17.77
2019-05-23T17:00:37.122Z,15.85
2019-05-23T17:03:18.806Z,19.33
2019-05-23T17:06:01.929Z,16.05
2019-05-23T17:08:44.882Z,17.85
2019-05-23T17:11:39.981Z,15.63
2019-05-23T17:14:36.204Z,15.65
2019-05-23T17:17:57.471Z,18.77
2019-05-23T17:20:37.315Z,19.37
2019-05-23T17:23:15.441Z,17.32
2019-05-23T17:26:08.263Z,19.57
2019-05-23T17:28:41.280Z,17.55
2019-05-23T17:31:13.827Z,17.12
2019-05-23T17:33:45.488Z,17.73
2019-05-23T17:36:15.776Z,16.67
2019-05-23T17:38:46.214Z,15.70
2019-05-23T17:41:16.533Z,18.20
2019-05-23T17:43:46.734Z,20.70
2019-05-23T17:46:16.918Z,13.53
2019-05-23T17:48:47.314Z,16.80
2019-05-23T17:51:17.714Z,16.50
2019-05-23T17:53:50.674Z,12.33
2019-05-23T17:56:20.879Z,12.93
2019-05-23T17:58:52.966Z,13.00
2019-05-23T18:01:25.246Z,15.78
2019-05-23T18:03:55.713Z,11.65
2019-05-23T18:06:26.423Z,11.50
2019-05-23T18:08:58.433Z,10.80
2019-05-23T18:11:28.823Z,13.20
2019-05-23T18:13:59.628Z,11.15
2019-05-23T18:16:31.679Z,13.28
2019-05-23T18:19:02.535Z,13.50
2019-05-23T18:21:33.445Z,9.80
2019-05-23T18:24:05.183Z,11.55
2019-05-23T18:26:35.559Z,11.30
2019-05-23T18:29:06.209Z,11.20
2019-05-23T18:31:38.976Z,10.75
2019-05-23T18:34:10.766Z,14.95
2019-05-23T18:36:41.303Z,13.60
2019-05-23T18:39:14.235Z,14.80
2019-05-23T18:41:45.714Z,14.00
2019-05-23T18:44:16.736Z,64.03
2019-05-23T18:46:49.537Z,14.07
2019-05-23T18:49:25.839Z,19.00
2019-05-23T18:51:56.129Z,12.82
2019-05-23T18:54:32.175Z,12.40
2019-05-23T18:57:02.444Z,16.50
2019-05-23T18:59:33.108Z,15.17
2019-05-23T19:02:06.670Z,11.70
2019-05-23T19:04:37.074Z,11.17
2019-05-23T19:07:09.378Z,13.23
2019-05-23T19:09:48.399Z,16.20
2019-05-23T19:12:25.567Z,15.53
2019-05-23T19:15:02.686Z,12.90
2019-05-23T19:17:41.024Z,14.73
2019-05-23T19:20:23.183Z,15.33
2019-05-23T19:23:12.614Z,22.17
2019-05-23T19:25:49.879Z,13.17
2019-05-23T19:28:46.439Z,14.80
2019-05-23T19:31:22.323Z,16.57
2019-05-23T19:33:55.645Z,13.57
2019-05-23T19:36:33.765Z,19.47
2019-05-23T19:39:08.930Z,19.03
2019-05-23T19:41:46.716Z,17.03
2019-05-23T19:44:20.113Z,16.77
2019-05-23T19:47:01.777Z,17.03
2019-05-23T19:49:34.646Z,14.97
2019-05-23T19:52:05.996Z,18.90
2019-05-23T19:54:38.264Z,19.87
2019-05-23T19:57:09.826Z,17.83
2019-05-23T19:59:40.768Z,16.67
2019-05-23T20:02:40.708Z,18.80
2019-05-23T20:05:21.329Z,17.17
2019-05-23T20:08:00.922Z,16.63
2019-05-23T20:10:32.502Z,23.00
2019-05-23T20:13:06.375Z,18.43
2019-05-23T20:15:37.263Z,15.37
2019-05-23T20:18:08.603Z,15.53
2019-05-23T20:20:42.386Z,15.73
2019-05-23T20:23:19.144Z,15.00
2019-05-23T20:25:54.566Z,17.87
2019-05-23T20:28:27.898Z,16.77
2019-05-23T20:31:00.661Z,19.80
2019-05-23T20:33:31.060Z,27.97
2019-05-23T20:36:03.404Z,22.13
2019-05-23T20:38:34.110Z,19.53
2019-05-23T20:41:05.034Z,23.37
2019-05-23T20:43:39.616Z,26.27
2019-05-23T20:49:09.093Z,27.77
2019-05-23T20:51:42.407Z,28.60
2019-05-23T20:54:15.478Z,27.07
2019-05-23T20:56:45.702Z,23.97
2019-05-23T20:59:16.293Z,25.60
2019-05-23T21:01:46.519Z,24.83
2019-05-23T21:04:19.669Z,20.20
2019-05-23T21:06:49.854Z,22.20
2019-05-23T21:09:21.192Z,23.40
2019-05-23T21:11:51.371Z,18.70
2019-05-23T21:14:21.542Z,25.03
2019-05-23T21:16:51.723Z,25.50
2019-05-23T21:19:21.924Z,24.03
2019-05-23T21:21:52.223Z,25.17
2019-05-23T21:24:22.418Z,23.80
2019-05-23T21:26:55.215Z,25.67
2019-05-23T21:29:25.527Z,24.57
2019-05-23T21:31:55.722Z,25.93
2019-05-23T21:34:25.909Z,25.13
2019-05-23T21:36:56.098Z,24.47
2019-05-23T21:39:26.364Z,23.80
2019-05-23T21:41:56.563Z,22.53
2019-05-23T21:44:26.760Z,24.90
2019-05-23T21:46:56.935Z,25.50
2019-05-23T21:49:27.359Z,26.97
2019-05-23T21:51:57.784Z,26.33
2019-05-23T21:54:27.987Z,27.70
2019-05-23T21:56:58.142Z,26.83
2019-05-23T21:59:28.289Z,25.07
2019-05-23T22:02:10.121Z,22.70
2019-05-23T22:04:48.412Z,25.60
2019-05-23T22:07:18.610Z,21.87
2019-05-23T22:09:48.832Z,27.53
2019-05-23T22:12:19.654Z,24.83
2019-05-23T22:14:50.081Z,27.40
2019-05-23T22:17:22.427Z,26.83
2019-05-23T22:19:52.766Z,27.90
2019-05-23T22:22:22.988Z,27.53
2019-05-23T22:24:53.242Z,30.53
2019-05-23T22:27:23.485Z,29.00
2019-05-23T22:29:54.692Z,26.37
2019-05-23T22:32:26.598Z,28.57
2019-05-23T22:35:01.314Z,27.20
2019-05-23T22:37:31.904Z,31.40
2019-05-23T22:40:02.057Z,31.13
2019-05-23T22:42:33.819Z,34.97
2019-05-23T22:45:05.812Z,28.37
2019-05-23T22:47:35.968Z,27.30
2019-05-23T22:50:06.534Z,27.83
2019-05-23T22:52:36.687Z,28.13
2019-05-23T22:55:07.009Z,29.00
2019-05-23T22:57:37.190Z,32.73
2019-05-23T23:00:07.896Z,33.57
2019-05-23T23:02:38.122Z,32.57
2019-05-23T23:05:08.319Z,35.57
2019-05-23T23:07:38.573Z,36.13
2019-05-23T23:10:08.975Z,39.60
2019-05-23T23:12:39.116Z,36.57
2019-05-23T23:15:09.465Z,36.60
2019-05-23T23:17:39.646Z,34.60
2019-05-23T23:20:10.189Z,37.67
2019-05-23T23:22:40.343Z,33.67
2019-05-23T23:25:10.738Z,39.73
2019-05-23T23:27:40.914Z,37.27
2019-05-23T23:30:12.983Z,44.10
2019-05-23T23:32:43.140Z,42.17
2019-05-23T23:35:13.328Z,39.50
2019-05-23T23:37:43.522Z,37.97
2019-05-23T23:40:14.244Z,41.70
2019-05-23T23:42:44.483Z,42.33
2019-05-23T23:45:32.904Z,43.77
2019-05-23T23:48:21.246Z,40.93
2019-05-23T23:51:09.218Z,36.30
2019-05-23T23:53:56.993Z,40.40
2019-05-23T23:56:45.313Z,33.80
2019-05-23T23:59:15.221Z,38.03
